sensor_id;sensor_type;location;lat;lon;timestamp;P1;durP1;ratioP1;P2;durP2;ratioP2
48018;SDS011;33786;48.690;9.562;2024-01-11T00:01:47;50.05;;;28.08;;
48018;SDS011;33786;48.690;9.562;2024-01-11T00:04:14;49.47;;;25.90;;
48018;SDS011;33786;48.690;9.562;2024-01-11T00:06:44;56.90;;;27.42;;
48018;SDS011;33786;48.690;9.562;2024-01-11T00:09:11;51.97;;;28.83;;
48018;SDS011;33786;48.690;9.562;2024-01-11T00:11:38;53.13;;;28.30;;
48018;SDS011;33786;48.690;9.562;2024-01-11T00:14:05;51.70;;;26.52;;
48018;SDS011;33786;48.690;9.562;2024-01-11T00:16:32;55.85;;;28.17;;
48018;SDS011;33786;48.690;9.562;2024-01-11T00:18:59;57.78;;;29.52;;
48018;SDS011;33786;48.690;9.562;2024-01-11T00:21:26;51.58;;;27.95;;
48018;SDS011;33786;48.690;9.562;2024-01-11T00:23:54;53.70;;;27.80;;
48018;SDS011;33786;48.690;9.562;2024-01-11T00:26:21;52.03;;;26.13;;
48018;SDS011;33786;48.690;9.562;2024-01-11T00:28:48;52.05;;;27.27;;
48018;SDS011;33786;48.690;9.562;2024-01-11T00:31:14;53.22;;;26.17;;
48018;SDS011;33786;48.690;9.562;2024-01-11T00:33:41;47.00;;;25.42;;
48018;SDS011;33786;48.690;9.562;2024-01-11T00:36:08;58.47;;;29.80;;
48018;SDS011;33786;48.690;9.562;2024-01-11T00:38:35;55.55;;;25.60;;
48018;SDS011;33786;48.690;9.562;2024-01-11T00:41:02;51.03;;;24.75;;
48018;SDS011;33786;48.690;9.562;2024-01-11T00:43:29;51.95;;;28.23;;
48018;SDS011;33786;48.690;9.562;2024-01-11T00:45:56;52.05;;;26.10;;
48018;SDS011;33786;48.690;9.562;2024-01-11T00:48:23;51.45;;;24.70;;
48018;SDS011;33786;48.690;9.562;2024-01-11T00:50:50;51.30;;;27.17;;
48018;SDS011;33786;48.690;9.562;2024-01-11T00:53:17;49.08;;;25.23;;
48018;SDS011;33786;48.690;9.562;2024-01-11T00:55:44;49.20;;;25.50;;
48018;SDS011;33786;48.690;9.562;2024-01-11T00:58:11;54.75;;;25.70;;
48018;SDS011;33786;48.690;9.562;2024-01-11T01:00:38;59.08;;;26.10;;
48018;SDS011;33786;48.690;9.562;2024-01-11T01:03:05;53.60;;;24.77;;
48018;SDS011;33786;48.690;9.562;2024-01-11T01:05:31;52.58;;;27.75;;
48018;SDS011;33786;48.690;9.562;2024-01-11T01:07:58;51.13;;;26.30;;
48018;SDS011;33786;48.690;9.562;2024-01-11T01:10:25;50.30;;;26.42;;
48018;SDS011;33786;48.690;9.562;2024-01-11T01:12:52;50.80;;;26.95;;
48018;SDS011;33786;48.690;9.562;2024-01-11T01:15:19;53.13;;;27.70;;
48018;SDS011;33786;48.690;9.562;2024-01-11T01:17:46;51.67;;;27.13;;
48018;SDS011;33786;48.690;9.562;2024-01-11T01:20:13;55.75;;;27.38;;
48018;SDS011;33786;48.690;9.562;2024-01-11T01:22:41;50.75;;;25.33;;
48018;SDS011;33786;48.690;9.562;2024-01-11T01:25:08;48.83;;;26.08;;
48018;SDS011;33786;48.690;9.562;2024-01-11T01:27:35;44.00;;;23.70;;
48018;SDS011;33786;48.690;9.562;2024-01-11T01:30:02;47.47;;;23.30;;
48018;SDS011;33786;48.690;9.562;2024-01-11T01:32:29;54.55;;;27.30;;
48018;SDS011;33786;48.690;9.562;2024-01-11T01:34:57;52.45;;;22.85;;
48018;SDS011;33786;48.690;9.562;2024-01-11T01:37:24;54.30;;;27.33;;
48018;SDS011;33786;48.690;9.562;2024-01-11T01:39:51;52.22;;;25.42;;
48018;SDS011;33786;48.690;9.562;2024-01-11T01:42:18;49.42;;;25.77;;
48018;SDS011;33786;48.690;9.562;2024-01-11T01:44:44;56.22;;;28.13;;
48018;SDS011;33786;48.690;9.562;2024-01-11T01:47:11;56.83;;;25.65;;
48018;SDS011;33786;48.690;9.562;2024-01-11T01:49:39;50.38;;;24.63;;
48018;SDS011;33786;48.690;9.562;2024-01-11T01:52:06;48.85;;;25.30;;
48018;SDS011;33786;48.690;9.562;2024-01-11T01:54:34;50.13;;;25.75;;
48018;SDS011;33786;48.690;9.562;2024-01-11T01:57:01;55.47;;;25.77;;
48018;SDS011;33786;48.690;9.562;2024-01-11T01:59:30;54.63;;;26.23;;
48018;SDS011;33786;48.690;9.562;2024-01-11T02:01:58;57.10;;;25.65;;
48018;SDS011;33786;48.690;9.562;2024-01-11T02:04:25;53.30;;;26.33;;
48018;SDS011;33786;48.690;9.562;2024-01-11T02:06:53;59.13;;;26.17;;
48018;SDS011;33786;48.690;9.562;2024-01-11T02:09:21;48.05;;;26.00;;
48018;SDS011;33786;48.690;9.562;2024-01-11T02:11:50;51.20;;;25.58;;
48018;SDS011;33786;48.690;9.562;2024-01-11T02:14:18;52.03;;;25.48;;
48018;SDS011;33786;48.690;9.562;2024-01-11T02:16:45;53.55;;;26.13;;
48018;SDS011;33786;48.690;9.562;2024-01-11T02:19:12;47.53;;;25.40;;
48018;SDS011;33786;48.690;9.562;2024-01-11T02:21:43;47.03;;;24.65;;
48018;SDS011;33786;48.690;9.562;2024-01-11T02:24:12;50.75;;;26.60;;
48018;SDS011;33786;48.690;9.562;2024-01-11T02:29:26;47.22;;;25.65;;
48018;SDS011;33786;48.690;9.562;2024-01-11T02:31:54;49.58;;;25.08;;
48018;SDS011;33786;48.690;9.562;2024-01-11T02:34:24;54.33;;;28.17;;
48018;SDS011;33786;48.690;9.562;2024-01-11T02:36:53;51.83;;;26.25;;
48018;SDS011;33786;48.690;9.562;2024-01-11T02:39:21;52.95;;;25.65;;
48018;SDS011;33786;48.690;9.562;2024-01-11T02:41:50;52.25;;;24.92;;
48018;SDS011;33786;48.690;9.562;2024-01-11T02:44:18;53.10;;;27.92;;
48018;SDS011;33786;48.690;9.562;2024-01-11T02:46:45;52.95;;;28.23;;
48018;SDS011;33786;48.690;9.562;2024-01-11T02:49:12;54.65;;;27.25;;
48018;SDS011;33786;48.690;9.562;2024-01-11T02:51:39;55.75;;;25.88;;
48018;SDS011;33786;48.690;9.562;2024-01-11T02:54:06;57.58;;;28.35;;
48018;SDS011;33786;48.690;9.562;2024-01-11T02:56:32;47.85;;;25.85;;
48018;SDS011;33786;48.690;9.562;2024-01-11T02:58:59;53.35;;;27.45;;
48018;SDS011;33786;48.690;9.562;2024-01-11T03:01:26;47.85;;;25.77;;
48018;SDS011;33786;48.690;9.562;2024-01-11T03:03:54;54.58;;;26.73;;
48018;SDS011;33786;48.690;9.562;2024-01-11T03:06:21;60.75;;;26.60;;
48018;SDS011;33786;48.690;9.562;2024-01-11T03:08:49;50.33;;;27.25;;
48018;SDS011;33786;48.690;9.562;2024-01-11T03:11:16;46.00;;;23.55;;
48018;SDS011;33786;48.690;9.562;2024-01-11T03:13:43;49.92;;;26.00;;
48018;SDS011;33786;48.690;9.562;2024-01-11T03:16:10;50.80;;;26.23;;
48018;SDS011;33786;48.690;9.562;2024-01-11T03:18:36;51.08;;;25.83;;
48018;SDS011;33786;48.690;9.562;2024-01-11T03:21:04;58.58;;;29.02;;
48018;SDS011;33786;48.690;9.562;2024-01-11T03:23:31;55.38;;;25.88;;
48018;SDS011;33786;48.690;9.562;2024-01-11T03:25:58;45.83;;;23.73;;
48018;SDS011;33786;48.690;9.562;2024-01-11T03:28:25;46.70;;;24.23;;
48018;SDS011;33786;48.690;9.562;2024-01-11T03:30:52;52.58;;;25.63;;
48018;SDS011;33786;48.690;9.562;2024-01-11T03:33:18;46.90;;;24.80;;
48018;SDS011;33786;48.690;9.562;2024-01-11T03:35:46;50.88;;;24.67;;
48018;SDS011;33786;48.690;9.562;2024-01-11T03:38:13;49.60;;;25.67;;
48018;SDS011;33786;48.690;9.562;2024-01-11T03:40:40;46.05;;;24.30;;
48018;SDS011;33786;48.690;9.562;2024-01-11T03:43:07;46.60;;;23.85;;
48018;SDS011;33786;48.690;9.562;2024-01-11T03:45:34;51.35;;;25.60;;
48018;SDS011;33786;48.690;9.562;2024-01-11T03:48:01;47.65;;;23.10;;
48018;SDS011;33786;48.690;9.562;2024-01-11T03:50:28;48.75;;;26.23;;
48018;SDS011;33786;48.690;9.562;2024-01-11T03:52:55;44.05;;;24.80;;
48018;SDS011;33786;48.690;9.562;2024-01-11T03:55:22;55.03;;;25.15;;
48018;SDS011;33786;48.690;9.562;2024-01-11T03:57:48;49.45;;;23.58;;
48018;SDS011;33786;48.690;9.562;2024-01-11T04:00:15;42.53;;;22.33;;
48018;SDS011;33786;48.690;9.562;2024-01-11T04:02:42;53.75;;;26.10;;
48018;SDS011;33786;48.690;9.562;2024-01-11T04:05:09;56.13;;;25.77;;
48018;SDS011;33786;48.690;9.562;2024-01-11T04:07:36;46.83;;;24.08;;
48018;SDS011;33786;48.690;9.562;2024-01-11T04:10:03;51.58;;;23.98;;
48018;SDS011;33786;48.690;9.562;2024-01-11T04:12:31;51.45;;;25.92;;
48018;SDS011;33786;48.690;9.562;2024-01-11T04:14:57;48.38;;;27.20;;
48018;SDS011;33786;48.690;9.562;2024-01-11T04:17:24;45.35;;;24.95;;
48018;SDS011;33786;48.690;9.562;2024-01-11T04:19:51;44.03;;;22.88;;
48018;SDS011;33786;48.690;9.562;2024-01-11T04:22:18;43.90;;;23.23;;
48018;SDS011;33786;48.690;9.562;2024-01-11T04:24:45;46.13;;;24.98;;
48018;SDS011;33786;48.690;9.562;2024-01-11T04:27:12;49.65;;;23.65;;
48018;SDS011;33786;48.690;9.562;2024-01-11T04:29:39;51.75;;;23.45;;
48018;SDS011;33786;48.690;9.562;2024-01-11T04:32:06;47.35;;;25.45;;
48018;SDS011;33786;48.690;9.562;2024-01-11T04:34:33;52.90;;;25.25;;
48018;SDS011;33786;48.690;9.562;2024-01-11T04:37:00;51.63;;;24.25;;
48018;SDS011;33786;48.690;9.562;2024-01-11T04:39:27;47.40;;;23.25;;
48018;SDS011;33786;48.690;9.562;2024-01-11T04:41:53;48.88;;;25.92;;
48018;SDS011;33786;48.690;9.562;2024-01-11T04:44:20;55.67;;;26.48;;
48018;SDS011;33786;48.690;9.562;2024-01-11T04:46:48;44.60;;;24.83;;
48018;SDS011;33786;48.690;9.562;2024-01-11T04:49:15;49.88;;;24.63;;
48018;SDS011;33786;48.690;9.562;2024-01-11T04:51:42;52.08;;;24.92;;
48018;SDS011;33786;48.690;9.562;2024-01-11T04:54:09;49.47;;;25.35;;
48018;SDS011;33786;48.690;9.562;2024-01-11T04:56:36;49.05;;;24.60;;
48018;SDS011;33786;48.690;9.562;2024-01-11T04:59:03;47.88;;;25.48;;
48018;SDS011;33786;48.690;9.562;2024-01-11T05:01:30;46.10;;;23.52;;
48018;SDS011;33786;48.690;9.562;2024-01-11T05:03:57;49.95;;;24.15;;
48018;SDS011;33786;48.690;9.562;2024-01-11T05:06:23;50.58;;;25.90;;
48018;SDS011;33786;48.690;9.562;2024-01-11T05:08:51;55.15;;;23.52;;
48018;SDS011;33786;48.690;9.562;2024-01-11T05:11:19;50.78;;;24.58;;
48018;SDS011;33786;48.690;9.562;2024-01-11T05:13:47;42.95;;;24.05;;
48018;SDS011;33786;48.690;9.562;2024-01-11T05:16:22;48.67;;;25.20;;
48018;SDS011;33786;48.690;9.562;2024-01-11T05:18:54;48.63;;;25.77;;
48018;SDS011;33786;48.690;9.562;2024-01-11T05:21:22;51.95;;;26.35;;
48018;SDS011;33786;48.690;9.562;2024-01-11T05:23:50;49.60;;;25.08;;
48018;SDS011;33786;48.690;9.562;2024-01-11T05:26:18;54.03;;;26.35;;
48018;SDS011;33786;48.690;9.562;2024-01-11T05:28:46;46.50;;;24.13;;
48018;SDS011;33786;48.690;9.562;2024-01-11T05:31:13;44.28;;;24.23;;
48018;SDS011;33786;48.690;9.562;2024-01-11T05:33:41;54.10;;;23.70;;
48018;SDS011;33786;48.690;9.562;2024-01-11T05:36:09;45.13;;;24.27;;
48018;SDS011;33786;48.690;9.562;2024-01-11T05:38:36;47.08;;;24.67;;
48018;SDS011;33786;48.690;9.562;2024-01-11T05:41:04;51.95;;;24.70;;
48018;SDS011;33786;48.690;9.562;2024-01-11T05:43:31;51.40;;;25.73;;
48018;SDS011;33786;48.690;9.562;2024-01-11T05:45:58;49.63;;;25.20;;
48018;SDS011;33786;48.690;9.562;2024-01-11T05:48:25;48.63;;;24.58;;
48018;SDS011;33786;48.690;9.562;2024-01-11T05:50:51;46.13;;;23.90;;
48018;SDS011;33786;48.690;9.562;2024-01-11T05:53:18;44.80;;;22.83;;
48018;SDS011;33786;48.690;9.562;2024-01-11T05:55:47;51.28;;;25.33;;
48018;SDS011;33786;48.690;9.562;2024-01-11T05:58:17;55.00;;;27.30;;
48018;SDS011;33786;48.690;9.562;2024-01-11T06:00:43;49.65;;;27.52;;
48018;SDS011;33786;48.690;9.562;2024-01-11T06:03:14;49.40;;;25.27;;
48018;SDS011;33786;48.690;9.562;2024-01-11T06:05:41;47.58;;;25.30;;
48018;SDS011;33786;48.690;9.562;2024-01-11T06:08:08;52.92;;;24.58;;
48018;SDS011;33786;48.690;9.562;2024-01-11T06:10:36;48.13;;;24.23;;
48018;SDS011;33786;48.690;9.562;2024-01-11T06:13:03;58.45;;;26.88;;
48018;SDS011;33786;48.690;9.562;2024-01-11T06:15:31;53.75;;;26.10;;
48018;SDS011;33786;48.690;9.562;2024-01-11T06:17:58;50.17;;;25.15;;
48018;SDS011;33786;48.690;9.562;2024-01-11T06:20:26;48.45;;;26.05;;
48018;SDS011;33786;48.690;9.562;2024-01-11T06:22:53;45.30;;;24.10;;
48018;SDS011;33786;48.690;9.562;2024-01-11T06:25:20;47.72;;;24.63;;
48018;SDS011;33786;48.690;9.562;2024-01-11T06:27:47;52.28;;;26.02;;
48018;SDS011;33786;48.690;9.562;2024-01-11T06:30:14;49.30;;;25.23;;
48018;SDS011;33786;48.690;9.562;2024-01-11T06:32:41;52.40;;;28.25;;
48018;SDS011;33786;48.690;9.562;2024-01-11T06:35:09;49.35;;;24.55;;
48018;SDS011;33786;48.690;9.562;2024-01-11T06:37:36;49.05;;;24.10;;
48018;SDS011;33786;48.690;9.562;2024-01-11T06:40:03;56.92;;;25.23;;
48018;SDS011;33786;48.690;9.562;2024-01-11T06:42:31;48.20;;;27.05;;
48018;SDS011;33786;48.690;9.562;2024-01-11T06:44:57;46.83;;;25.23;;
48018;SDS011;33786;48.690;9.562;2024-01-11T06:47:24;48.20;;;25.27;;
48018;SDS011;33786;48.690;9.562;2024-01-11T06:49:52;48.65;;;23.77;;
48018;SDS011;33786;48.690;9.562;2024-01-11T06:52:19;47.33;;;24.23;;
48018;SDS011;33786;48.690;9.562;2024-01-11T06:54:46;52.40;;;25.48;;
48018;SDS011;33786;48.690;9.562;2024-01-11T06:57:13;57.78;;;27.52;;
48018;SDS011;33786;48.690;9.562;2024-01-11T06:59:40;47.63;;;27.08;;
48018;SDS011;33786;48.690;9.562;2024-01-11T07:02:07;49.53;;;24.55;;
48018;SDS011;33786;48.690;9.562;2024-01-11T07:04:34;51.30;;;24.67;;
48018;SDS011;33786;48.690;9.562;2024-01-11T07:07:01;45.70;;;25.75;;
48018;SDS011;33786;48.690;9.562;2024-01-11T07:09:31;50.97;;;26.35;;
48018;SDS011;33786;48.690;9.562;2024-01-11T07:11:57;45.63;;;25.30;;
48018;SDS011;33786;48.690;9.562;2024-01-11T07:14:24;46.65;;;24.83;;
48018;SDS011;33786;48.690;9.562;2024-01-11T07:16:51;41.90;;;22.73;;
48018;SDS011;33786;48.690;9.562;2024-01-11T07:19:18;49.05;;;26.33;;
48018;SDS011;33786;48.690;9.562;2024-01-11T07:21:45;46.90;;;23.27;;
48018;SDS011;33786;48.690;9.562;2024-01-11T07:24:12;44.92;;;22.98;;
48018;SDS011;33786;48.690;9.562;2024-01-11T07:26:39;50.25;;;27.48;;
48018;SDS011;33786;48.690;9.562;2024-01-11T07:29:06;43.15;;;24.80;;
48018;SDS011;33786;48.690;9.562;2024-01-11T07:31:33;48.20;;;24.77;;
48018;SDS011;33786;48.690;9.562;2024-01-11T07:34:00;48.15;;;26.08;;
48018;SDS011;33786;48.690;9.562;2024-01-11T07:36:27;45.90;;;25.00;;
48018;SDS011;33786;48.690;9.562;2024-01-11T07:38:54;40.45;;;23.88;;
48018;SDS011;33786;48.690;9.562;2024-01-11T07:41:21;47.95;;;26.70;;
48018;SDS011;33786;48.690;9.562;2024-01-11T07:43:49;50.47;;;24.95;;
48018;SDS011;33786;48.690;9.562;2024-01-11T07:46:20;51.90;;;25.90;;
48018;SDS011;33786;48.690;9.562;2024-01-11T07:48:58;49.97;;;26.27;;
48018;SDS011;33786;48.690;9.562;2024-01-11T07:51:26;49.17;;;27.20;;
48018;SDS011;33786;48.690;9.562;2024-01-11T07:53:53;46.55;;;24.05;;
48018;SDS011;33786;48.690;9.562;2024-01-11T07:56:20;54.35;;;27.60;;
48018;SDS011;33786;48.690;9.562;2024-01-11T07:58:47;53.20;;;26.27;;
48018;SDS011;33786;48.690;9.562;2024-01-11T08:01:15;52.65;;;25.83;;
48018;SDS011;33786;48.690;9.562;2024-01-11T08:03:43;51.97;;;26.75;;
48018;SDS011;33786;48.690;9.562;2024-01-11T08:06:14;49.42;;;27.05;;
48018;SDS011;33786;48.690;9.562;2024-01-11T08:08:41;54.25;;;27.83;;
48018;SDS011;33786;48.690;9.562;2024-01-11T08:11:09;56.53;;;28.20;;
48018;SDS011;33786;48.690;9.562;2024-01-11T08:13:37;51.53;;;29.13;;
48018;SDS011;33786;48.690;9.562;2024-01-11T08:16:04;93.22;;;46.67;;
48018;SDS011;33786;48.690;9.562;2024-01-11T08:18:36;83.40;;;39.42;;
48018;SDS011;33786;48.690;9.562;2024-01-11T08:21:03;70.57;;;35.60;;
48018;SDS011;33786;48.690;9.562;2024-01-11T08:23:36;83.63;;;40.95;;
48018;SDS011;33786;48.690;9.562;2024-01-11T08:26:07;84.05;;;40.95;;
48018;SDS011;33786;48.690;9.562;2024-01-11T08:28:34;64.65;;;37.55;;
48018;SDS011;33786;48.690;9.562;2024-01-11T08:31:01;69.25;;;34.28;;
48018;SDS011;33786;48.690;9.562;2024-01-11T08:33:31;66.45;;;35.63;;
48018;SDS011;33786;48.690;9.562;2024-01-11T08:35:58;65.15;;;34.85;;
48018;SDS011;33786;48.690;9.562;2024-01-11T08:38:25;63.45;;;34.20;;
48018;SDS011;33786;48.690;9.562;2024-01-11T08:40:52;59.15;;;31.73;;
48018;SDS011;33786;48.690;9.562;2024-01-11T08:43:19;51.35;;;29.05;;
48018;SDS011;33786;48.690;9.562;2024-01-11T08:45:46;43.47;;;25.27;;
48018;SDS011;33786;48.690;9.562;2024-01-11T08:48:15;42.38;;;23.77;;
48018;SDS011;33786;48.690;9.562;2024-01-11T08:50:42;43.60;;;23.67;;
48018;SDS011;33786;48.690;9.562;2024-01-11T08:53:09;40.20;;;23.95;;
48018;SDS011;33786;48.690;9.562;2024-01-11T08:55:36;43.03;;;24.55;;
48018;SDS011;33786;48.690;9.562;2024-01-11T08:58:03;43.25;;;25.35;;
48018;SDS011;33786;48.690;9.562;2024-01-11T09:00:30;46.90;;;26.33;;
48018;SDS011;33786;48.690;9.562;2024-01-11T09:02:59;44.47;;;27.98;;
48018;SDS011;33786;48.690;9.562;2024-01-11T09:05:27;44.60;;;26.40;;
48018;SDS011;33786;48.690;9.562;2024-01-11T09:07:54;41.10;;;24.40;;
48018;SDS011;33786;48.690;9.562;2024-01-11T09:10:22;38.15;;;23.33;;
48018;SDS011;33786;48.690;9.562;2024-01-11T09:12:48;37.67;;;23.65;;
48018;SDS011;33786;48.690;9.562;2024-01-11T09:15:15;40.25;;;23.15;;
48018;SDS011;33786;48.690;9.562;2024-01-11T09:17:42;39.08;;;24.13;;
48018;SDS011;33786;48.690;9.562;2024-01-11T09:20:09;35.08;;;22.92;;
48018;SDS011;33786;48.690;9.562;2024-01-11T09:22:40;36.35;;;23.27;;
48018;SDS011;33786;48.690;9.562;2024-01-11T09:25:07;36.40;;;23.75;;
48018;SDS011;33786;48.690;9.562;2024-01-11T09:27:34;38.85;;;24.95;;
48018;SDS011;33786;48.690;9.562;2024-01-11T09:30:01;38.03;;;24.75;;
48018;SDS011;33786;48.690;9.562;2024-01-11T09:32:28;37.25;;;25.02;;
48018;SDS011;33786;48.690;9.562;2024-01-11T09:34:57;39.22;;;25.92;;
48018;SDS011;33786;48.690;9.562;2024-01-11T09:37:24;65.35;;;42.38;;
48018;SDS011;33786;48.690;9.562;2024-01-11T09:39:51;38.38;;;24.05;;
48018;SDS011;33786;48.690;9.562;2024-01-11T09:42:18;39.67;;;24.70;;
48018;SDS011;33786;48.690;9.562;2024-01-11T09:44:45;39.05;;;24.90;;
48018;SDS011;33786;48.690;9.562;2024-01-11T09:47:13;44.38;;;28.10;;
48018;SDS011;33786;48.690;9.562;2024-01-11T09:49:45;43.20;;;28.50;;
48018;SDS011;33786;48.690;9.562;2024-01-11T09:52:17;38.38;;;23.23;;
48018;SDS011;33786;48.690;9.562;2024-01-11T09:54:46;38.80;;;26.30;;
48018;SDS011;33786;48.690;9.562;2024-01-11T09:57:13;41.65;;;24.83;;
48018;SDS011;33786;48.690;9.562;2024-01-11T09:59:43;39.65;;;26.05;;
48018;SDS011;33786;48.690;9.562;2024-01-11T10:02:10;41.75;;;25.02;;
48018;SDS011;33786;48.690;9.562;2024-01-11T10:04:38;39.72;;;24.83;;
48018;SDS011;33786;48.690;9.562;2024-01-11T10:07:08;39.50;;;26.30;;
48018;SDS011;33786;48.690;9.562;2024-01-11T10:09:36;38.40;;;26.05;;
48018;SDS011;33786;48.690;9.562;2024-01-11T10:12:03;44.72;;;27.88;;
48018;SDS011;33786;48.690;9.562;2024-01-11T10:14:31;40.20;;;26.08;;
48018;SDS011;33786;48.690;9.562;2024-01-11T10:16:58;37.50;;;25.90;;
48018;SDS011;33786;48.690;9.562;2024-01-11T10:19:25;42.53;;;26.90;;
48018;SDS011;33786;48.690;9.562;2024-01-11T10:21:53;37.83;;;24.67;;
48018;SDS011;33786;48.690;9.562;2024-01-11T10:24:20;37.88;;;25.60;;
48018;SDS011;33786;48.690;9.562;2024-01-11T10:26:48;37.70;;;23.90;;
48018;SDS011;33786;48.690;9.562;2024-01-11T10:29:15;35.85;;;23.77;;
48018;SDS011;33786;48.690;9.562;2024-01-11T10:31:44;35.67;;;25.30;;
48018;SDS011;33786;48.690;9.562;2024-01-11T10:34:11;38.80;;;25.48;;
48018;SDS011;33786;48.690;9.562;2024-01-11T10:36:38;39.80;;;26.50;;
48018;SDS011;33786;48.690;9.562;2024-01-11T10:39:07;37.08;;;25.67;;
48018;SDS011;33786;48.690;9.562;2024-01-11T10:41:38;42.22;;;26.70;;
48018;SDS011;33786;48.690;9.562;2024-01-11T10:44:11;37.20;;;25.10;;
48018;SDS011;33786;48.690;9.562;2024-01-11T10:46:51;38.45;;;25.42;;
48018;SDS011;33786;48.690;9.562;2024-01-11T10:49:22;42.03;;;26.48;;
48018;SDS011;33786;48.690;9.562;2024-01-11T10:52:02;39.92;;;26.60;;
48018;SDS011;33786;48.690;9.562;2024-01-11T10:54:31;35.70;;;25.85;;
48018;SDS011;33786;48.690;9.562;2024-01-11T10:57:01;41.13;;;27.83;;
48018;SDS011;33786;48.690;9.562;2024-01-11T10:59:31;36.08;;;25.20;;
48018;SDS011;33786;48.690;9.562;2024-01-11T11:02:04;37.65;;;26.55;;
48018;SDS011;33786;48.690;9.562;2024-01-11T11:04:33;40.78;;;27.60;;
48018;SDS011;33786;48.690;9.562;2024-01-11T11:07:02;39.33;;;26.83;;
48018;SDS011;33786;48.690;9.562;2024-01-11T11:09:30;40.38;;;27.27;;
48018;SDS011;33786;48.690;9.562;2024-01-11T11:11:59;39.20;;;27.17;;
48018;SDS011;33786;48.690;9.562;2024-01-11T11:14:27;37.60;;;26.13;;
48018;SDS011;33786;48.690;9.562;2024-01-11T11:16:54;43.30;;;28.02;;
48018;SDS011;33786;48.690;9.562;2024-01-11T11:19:21;40.15;;;28.70;;
48018;SDS011;33786;48.690;9.562;2024-01-11T11:21:49;37.30;;;24.90;;
48018;SDS011;33786;48.690;9.562;2024-01-11T11:24:17;40.35;;;28.88;;
48018;SDS011;33786;48.690;9.562;2024-01-11T11:26:45;39.47;;;29.05;;
48018;SDS011;33786;48.690;9.562;2024-01-11T11:29:12;41.22;;;27.17;;
48018;SDS011;33786;48.690;9.562;2024-01-11T11:31:46;40.15;;;26.48;;
48018;SDS011;33786;48.690;9.562;2024-01-11T11:34:14;42.38;;;26.63;;
48018;SDS011;33786;48.690;9.562;2024-01-11T11:36:41;41.13;;;26.45;;
48018;SDS011;33786;48.690;9.562;2024-01-11T11:39:13;37.97;;;25.42;;
48018;SDS011;33786;48.690;9.562;2024-01-11T11:41:40;38.85;;;27.10;;
48018;SDS011;33786;48.690;9.562;2024-01-11T11:44:11;39.25;;;25.00;;
48018;SDS011;33786;48.690;9.562;2024-01-11T11:46:41;38.25;;;26.17;;
48018;SDS011;33786;48.690;9.562;2024-01-11T11:49:10;36.95;;;24.73;;
48018;SDS011;33786;48.690;9.562;2024-01-11T11:51:38;38.70;;;25.38;;
48018;SDS011;33786;48.690;9.562;2024-01-11T11:54:07;40.28;;;25.45;;
48018;SDS011;33786;48.690;9.562;2024-01-11T11:56:40;39.72;;;24.38;;
48018;SDS011;33786;48.690;9.562;2024-01-11T11:59:08;36.72;;;24.75;;
48018;SDS011;33786;48.690;9.562;2024-01-11T12:01:35;35.85;;;25.08;;
48018;SDS011;33786;48.690;9.562;2024-01-11T12:04:04;37.38;;;25.27;;
48018;SDS011;33786;48.690;9.562;2024-01-11T12:06:34;39.17;;;25.38;;
48018;SDS011;33786;48.690;9.562;2024-01-11T12:09:01;35.92;;;25.13;;
48018;SDS011;33786;48.690;9.562;2024-01-11T12:11:29;41.58;;;25.95;;
48018;SDS011;33786;48.690;9.562;2024-01-11T12:13:57;35.95;;;25.60;;
48018;SDS011;33786;48.690;9.562;2024-01-11T12:16:24;37.38;;;24.80;;
48018;SDS011;33786;48.690;9.562;2024-01-11T12:18:51;40.10;;;25.45;;
48018;SDS011;33786;48.690;9.562;2024-01-11T12:21:19;37.60;;;25.67;;
48018;SDS011;33786;48.690;9.562;2024-01-11T12:23:46;38.92;;;26.45;;
48018;SDS011;33786;48.690;9.562;2024-01-11T12:26:15;39.05;;;26.90;;
48018;SDS011;33786;48.690;9.562;2024-01-11T12:28:48;43.95;;;26.63;;
48018;SDS011;33786;48.690;9.562;2024-01-11T12:31:16;40.08;;;24.40;;
48018;SDS011;33786;48.690;9.562;2024-01-11T12:33:43;44.63;;;26.17;;
48018;SDS011;33786;48.690;9.562;2024-01-11T12:36:10;44.15;;;27.10;;
48018;SDS011;33786;48.690;9.562;2024-01-11T12:38:38;43.22;;;26.55;;
48018;SDS011;33786;48.690;9.562;2024-01-11T12:41:18;39.70;;;26.20;;
48018;SDS011;33786;48.690;9.562;2024-01-11T12:43:47;44.58;;;26.65;;
48018;SDS011;33786;48.690;9.562;2024-01-11T12:46:14;44.65;;;25.80;;
48018;SDS011;33786;48.690;9.562;2024-01-11T12:48:41;50.65;;;27.42;;
48018;SDS011;33786;48.690;9.562;2024-01-11T12:51:09;43.13;;;27.88;;
48018;SDS011;33786;48.690;9.562;2024-01-11T12:53:46;49.30;;;25.88;;
48018;SDS011;33786;48.690;9.562;2024-01-11T12:56:15;41.08;;;25.38;;
48018;SDS011;33786;48.690;9.562;2024-01-11T12:58:42;43.22;;;27.08;;
48018;SDS011;33786;48.690;9.562;2024-01-11T13:01:09;43.45;;;27.73;;
48018;SDS011;33786;48.690;9.562;2024-01-11T13:03:38;40.78;;;25.73;;
48018;SDS011;33786;48.690;9.562;2024-01-11T13:06:06;44.92;;;27.27;;
48018;SDS011;33786;48.690;9.562;2024-01-11T13:08:35;41.83;;;25.27;;
48018;SDS011;33786;48.690;9.562;2024-01-11T13:11:04;39.65;;;24.92;;
48018;SDS011;33786;48.690;9.562;2024-01-11T13:13:34;40.97;;;25.20;;
48018;SDS011;33786;48.690;9.562;2024-01-11T13:16:04;37.45;;;25.23;;
48018;SDS011;33786;48.690;9.562;2024-01-11T13:18:40;36.92;;;24.13;;
48018;SDS011;33786;48.690;9.562;2024-01-11T13:21:07;40.15;;;24.10;;
48018;SDS011;33786;48.690;9.562;2024-01-11T13:23:35;38.97;;;25.08;;
48018;SDS011;33786;48.690;9.562;2024-01-11T13:26:04;41.25;;;25.00;;
48018;SDS011;33786;48.690;9.562;2024-01-11T13:28:35;35.60;;;22.27;;
48018;SDS011;33786;48.690;9.562;2024-01-11T13:31:02;36.80;;;23.90;;
48018;SDS011;33786;48.690;9.562;2024-01-11T13:33:29;42.42;;;26.55;;
48018;SDS011;33786;48.690;9.562;2024-01-11T13:35:56;57.58;;;33.42;;
48018;SDS011;33786;48.690;9.562;2024-01-11T13:38:24;42.15;;;24.77;;
48018;SDS011;33786;48.690;9.562;2024-01-11T13:40:51;51.78;;;26.30;;
48018;SDS011;33786;48.690;9.562;2024-01-11T13:43:18;44.42;;;28.75;;
48018;SDS011;33786;48.690;9.562;2024-01-11T13:45:45;46.22;;;26.75;;
48018;SDS011;33786;48.690;9.562;2024-01-11T13:48:12;41.00;;;26.50;;
48018;SDS011;33786;48.690;9.562;2024-01-11T13:50:39;43.28;;;24.50;;
48018;SDS011;33786;48.690;9.562;2024-01-11T13:53:06;35.08;;;22.45;;
48018;SDS011;33786;48.690;9.562;2024-01-11T13:55:33;39.13;;;24.55;;
48018;SDS011;33786;48.690;9.562;2024-01-11T13:58:05;36.33;;;23.63;;
48018;SDS011;33786;48.690;9.562;2024-01-11T14:00:32;36.67;;;23.20;;
48018;SDS011;33786;48.690;9.562;2024-01-11T14:03:00;38.47;;;23.48;;
48018;SDS011;33786;48.690;9.562;2024-01-11T14:05:27;35.92;;;24.30;;
48018;SDS011;33786;48.690;9.562;2024-01-11T14:07:54;41.50;;;25.20;;
48018;SDS011;33786;48.690;9.562;2024-01-11T14:10:25;39.88;;;23.98;;
48018;SDS011;33786;48.690;9.562;2024-01-11T14:12:53;37.83;;;23.30;;
48018;SDS011;33786;48.690;9.562;2024-01-11T14:15:20;40.83;;;23.60;;
48018;SDS011;33786;48.690;9.562;2024-01-11T14:17:47;43.22;;;25.45;;
48018;SDS011;33786;48.690;9.562;2024-01-11T14:20:15;38.13;;;23.55;;
48018;SDS011;33786;48.690;9.562;2024-01-11T14:22:44;40.40;;;24.85;;
48018;SDS011;33786;48.690;9.562;2024-01-11T14:25:18;38.03;;;25.08;;
48018;SDS011;33786;48.690;9.562;2024-01-11T14:27:46;39.88;;;25.38;;